createdAt,value
2023-03-22T00:01:30.929Z,20.30
2023-03-22T00:03:57.829Z,20.30
2023-03-22T00:06:24.605Z,20.30
2023-03-22T00:08:52.273Z,20.30
2023-03-22T00:11:20.288Z,20.30
2023-03-22T00:13:47.139Z,20.30
2023-03-22T00:16:14.552Z,20.30
2023-03-22T00:18:41.461Z,20.20
2023-03-22T00:21:11.292Z,20.20
2023-03-22T00:23:38.010Z,20.20
2023-03-22T00:26:04.806Z,20.20
2023-03-22T00:28:31.584Z,20.20
2023-03-22T00:30:59.730Z,20.20
2023-03-22T00:33:26.825Z,20.20
2023-03-22T00:35:57.678Z,20.20
2023-03-22T00:38:39.526Z,20.20
2023-03-22T00:41:37.643Z,20.20
2023-03-22T00:44:04.402Z,20.20
2023-03-22T00:46:31.147Z,20.20
2023-03-22T00:48:57.826Z,20.20
2023-03-22T00:51:24.770Z,20.30
2023-03-22T00:53:52.320Z,20.30
2023-03-22T00:56:19.509Z,20.30
2023-03-22T00:58:46.174Z,20.20
2023-03-22T01:01:14.204Z,20.20
2023-03-22T01:03:41.900Z,20.20
2023-03-22T01:06:09.079Z,20.20
2023-03-22T01:08:38.769Z,20.10
2023-03-22T01:11:06.965Z,20.10
2023-03-22T01:13:33.940Z,20.10
2023-03-22T01:16:00.634Z,20.10
2023-03-22T01:18:27.559Z,20.10
2023-03-22T01:20:54.321Z,20.10
2023-03-22T01:23:21.155Z,20.10
2023-03-22T01:25:47.830Z,20.10
2023-03-22T01:28:14.625Z,20.10
2023-03-22T01:30:41.843Z,20.20
2023-03-22T01:33:08.936Z,20.20
2023-03-22T01:35:36.206Z,20.20
2023-03-22T01:38:03.136Z,20.20
2023-03-22T01:40:29.838Z,20.20
2023-03-22T01:42:56.756Z,20.20
2023-03-22T01:45:34.721Z,20.20
2023-03-22T01:48:04.800Z,20.10
2023-03-22T01:50:31.517Z,20.10
2023-03-22T01:52:58.306Z,20.10
2023-03-22T01:55:26.109Z,20.10
2023-03-22T01:57:52.872Z,20.10
2023-03-22T02:00:20.567Z,20.10
2023-03-22T02:02:49.090Z,20.10
2023-03-22T02:05:16.112Z,20.10
2023-03-22T02:07:42.958Z,20.10
2023-03-22T02:10:13.878Z,20.10
2023-03-22T02:12:59.465Z,20.10
2023-03-22T02:15:47.913Z,20.10
2023-03-22T02:18:39.909Z,20.10
2023-03-22T02:21:21.670Z,20.10
2023-03-22T02:24:26.885Z,20.20
2023-03-22T02:27:11.099Z,20.20
2023-03-22T02:30:00.468Z,20.20
2023-03-22T02:32:27.113Z,20.10
2023-03-22T02:35:08.912Z,20.10
2023-03-22T02:37:50.859Z,20.10
2023-03-22T02:40:32.219Z,20.10
2023-03-22T02:43:15.504Z,20.10
2023-03-22T02:45:44.936Z,20.10
2023-03-22T02:48:33.022Z,20.10
2023-03-22T02:50:59.690Z,20.10
2023-03-22T02:53:30.725Z,20.10
2023-03-22T02:56:23.540Z,20.10
2023-03-22T02:58:53.246Z,20.00
2023-03-22T03:01:24.707Z,20.10
2023-03-22T03:03:52.579Z,20.10
2023-03-22T03:06:20.411Z,20.10
2023-03-22T03:08:50.713Z,20.10
2023-03-22T03:11:17.618Z,20.10
2023-03-22T03:13:47.826Z,20.10
2023-03-22T03:16:17.516Z,20.10
2023-03-22T03:18:53.175Z,20.10
2023-03-22T03:21:45.365Z,20.00
2023-03-22T03:24:28.460Z,20.00
2023-03-22T03:27:08.146Z,20.00
2023-03-22T03:29:41.285Z,20.00
2023-03-22T03:32:27.791Z,20.00
2023-03-22T03:34:59.360Z,20.00
2023-03-22T03:37:41.569Z,20.00
2023-03-22T03:40:13.828Z,20.00
2023-03-22T03:42:46.548Z,20.00
2023-03-22T03:45:14.433Z,20.00
2023-03-22T03:47:42.450Z,20.00
2023-03-22T03:50:09.590Z,20.00
2023-03-22T03:52:36.315Z,20.00
2023-03-22T03:55:02.995Z,20.00
2023-03-22T03:57:29.714Z,20.10
2023-03-22T03:59:56.635Z,20.10
2023-03-22T04:02:23.504Z,20.00
2023-03-22T04:04:50.267Z,20.00
2023-03-22T04:07:16.942Z,20.00
2023-03-22T04:09:43.632Z,20.00
2023-03-22T04:12:10.320Z,20.00
2023-03-22T04:14:37.003Z,20.00
2023-03-22T04:17:03.666Z,20.00
2023-03-22T04:19:31.150Z,20.00
2023-03-22T04:21:57.981Z,19.90
2023-03-22T04:24:24.695Z,19.90
2023-03-22T04:26:52.595Z,19.90
2023-03-22T04:29:19.302Z,20.00
2023-03-22T04:31:46.048Z,19.90
2023-03-22T04:34:12.750Z,19.90
2023-03-22T04:36:39.681Z,20.00
2023-03-22T04:39:08.704Z,19.90
2023-03-22T04:41:36.012Z,20.00
2023-03-22T04:44:03.841Z,20.00
2023-03-22T04:46:31.288Z,20.00
2023-03-22T04:48:58.051Z,20.00
2023-03-22T04:51:24.907Z,20.00
2023-03-22T04:53:51.882Z,19.90
2023-03-22T04:56:18.696Z,19.90
2023-03-22T04:58:45.568Z,19.90
2023-03-22T05:01:13.114Z,19.90
2023-03-22T05:03:39.840Z,19.90
2023-03-22T05:06:07.642Z,19.90
2023-03-22T05:08:34.449Z,19.90
2023-03-22T05:11:07.995Z,19.90
2023-03-22T05:13:34.741Z,19.90
2023-03-22T05:16:01.518Z,19.90
2023-03-22T05:18:28.323Z,19.90
2023-03-22T05:20:55.837Z,19.90
2023-03-22T05:23:22.802Z,19.90
2023-03-22T05:25:50.456Z,19.90
2023-03-22T05:28:19.615Z,19.90
2023-03-22T05:30:46.547Z,19.90
2023-03-22T05:33:14.225Z,19.90
2023-03-22T05:35:42.514Z,20.00
2023-03-22T05:38:09.337Z,19.90
2023-03-22T05:40:36.174Z,19.90
2023-03-22T05:43:02.834Z,19.90
2023-03-22T05:45:29.618Z,19.90
2023-03-22T05:47:56.362Z,19.90
2023-03-22T05:50:23.299Z,19.90
2023-03-22T05:52:52.351Z,19.90
2023-03-22T05:55:19.152Z,19.90
2023-03-22T05:57:46.703Z,19.90
2023-03-22T06:00:16.115Z,19.90
2023-03-22T06:02:43.383Z,19.90
2023-03-22T06:05:12.969Z,19.90
2023-03-22T06:07:40.247Z,19.90
2023-03-22T06:10:07.730Z,19.90
2023-03-22T06:12:34.384Z,19.90
2023-03-22T06:15:01.248Z,20.00
2023-03-22T06:17:27.974Z,20.00
2023-03-22T06:19:54.932Z,20.00
2023-03-22T06:22:21.696Z,20.00
2023-03-22T06:24:48.644Z,20.00
2023-03-22T06:27:15.631Z,20.00
2023-03-22T06:29:42.318Z,20.00
2023-03-22T06:32:09.182Z,20.00
2023-03-22T06:34:36.052Z,19.90
2023-03-22T06:37:02.868Z,19.90
2023-03-22T06:39:29.542Z,20.00
2023-03-22T06:41:56.249Z,19.90
2023-03-22T06:44:22.994Z,19.90
2023-03-22T06:46:49.857Z,20.00
2023-03-22T06:49:16.884Z,20.00
2023-03-22T06:51:43.636Z,20.00
2023-03-22T06:54:12.599Z,20.00
2023-03-22T06:56:39.261Z,20.00
2023-03-22T06:59:06.016Z,20.00
2023-03-22T07:01:32.775Z,20.00
2023-03-22T07:03:59.737Z,20.00
2023-03-22T07:06:26.497Z,20.00
2023-03-22T07:08:53.155Z,20.00
2023-03-22T07:11:19.867Z,20.00
2023-03-22T07:13:46.574Z,20.00
2023-03-22T07:16:13.368Z,20.00
2023-03-22T07:18:40.557Z,20.00
2023-03-22T07:21:07.373Z,20.00
2023-03-22T07:23:34.114Z,20.00
2023-03-22T07:26:00.820Z,20.00
2023-03-22T07:28:27.674Z,20.00
2023-03-22T07:31:04.983Z,20.00
2023-03-22T07:33:31.793Z,20.00
2023-03-22T07:35:58.498Z,20.00
2023-03-22T07:38:25.413Z,20.00
2023-03-22T07:40:54.590Z,20.00
2023-03-22T07:43:21.832Z,20.00
2023-03-22T07:45:51.582Z,20.00
2023-03-22T07:48:20.679Z,20.00
2023-03-22T07:50:48.880Z,20.00
2023-03-22T07:53:15.608Z,20.00
2023-03-22T07:55:42.809Z,20.00
2023-03-22T07:58:11.471Z,20.00
2023-03-22T08:00:38.720Z,20.00
2023-03-22T08:03:06.479Z,20.00
2023-03-22T08:05:33.446Z,20.10
2023-03-22T08:08:00.728Z,20.00
2023-03-22T08:10:27.763Z,20.10
2023-03-22T08:12:54.468Z,20.10
2023-03-22T08:15:22.630Z,20.10
2023-03-22T08:17:49.897Z,20.10
2023-03-22T08:20:18.375Z,20.10
2023-03-22T08:22:46.028Z,20.10
2023-03-22T08:25:14.385Z,20.10
2023-03-22T08:27:43.278Z,20.10
2023-03-22T08:30:12.773Z,20.10
2023-03-22T08:32:42.004Z,20.20
2023-03-22T08:35:11.067Z,20.20
2023-03-22T08:37:41.518Z,20.20
2023-03-22T08:40:11.601Z,20.30
2023-03-22T08:42:38.658Z,20.20
2023-03-22T08:45:06.199Z,20.30
2023-03-22T08:47:33.104Z,20.30
2023-03-22T08:49:59.827Z,20.30
2023-03-22T08:52:26.608Z,20.30
2023-03-22T08:54:53.488Z,20.30
2023-03-22T08:57:22.019Z,20.30
2023-03-22T08:59:49.315Z,20.30
2023-03-22T09:02:16.301Z,20.30
2023-03-22T09:04:43.796Z,20.30
2023-03-22T09:07:12.233Z,20.40
2023-03-22T09:09:39.171Z,20.40
2023-03-22T09:12:06.793Z,20.40
2023-03-22T09:14:33.451Z,20.40
2023-03-22T09:17:00.488Z,20.40
2023-03-22T09:19:27.505Z,20.50
2023-03-22T09:21:54.227Z,20.50
2023-03-22T09:24:21.187Z,20.50
2023-03-22T09:26:47.936Z,20.50
2023-03-22T09:29:14.896Z,20.50
2023-03-22T09:31:43.475Z,20.50
2023-03-22T09:34:11.211Z,20.40
2023-03-22T09:36:37.977Z,20.30
2023-03-22T09:39:07.126Z,20.20
2023-03-22T09:41:56.247Z,20.10
2023-03-22T09:44:39.060Z,20.10
2023-03-22T09:47:05.757Z,20.20
2023-03-22T09:49:52.710Z,20.30
2023-03-22T09:52:20.365Z,20.30
2023-03-22T09:54:47.071Z,20.30
2023-03-22T09:57:33.933Z,20.40
2023-03-22T10:00:16.819Z,20.50
2023-03-22T10:03:36.232Z,20.50
2023-03-22T10:06:12.292Z,20.50
2023-03-22T10:08:44.560Z,20.60
2023-03-22T10:11:21.367Z,20.70
2023-03-22T10:13:55.616Z,20.70
2023-03-22T10:16:31.008Z,20.80
2023-03-22T10:19:31.572Z,20.80
2023-03-22T10:21:58.783Z,20.80
2023-03-22T10:24:38.574Z,20.90
2023-03-22T10:27:15.775Z,20.90
2023-03-22T10:30:10.476Z,20.90
2023-03-22T10:33:01.956Z,20.90
2023-03-22T10:35:29.537Z,21.00
2023-03-22T10:37:57.652Z,21.00
2023-03-22T10:40:27.063Z,21.00
2023-03-22T10:42:56.458Z,21.00
2023-03-22T10:45:24.320Z,21.00
2023-03-22T10:48:14.384Z,20.90
2023-03-22T10:50:43.417Z,20.80
2023-03-22T10:53:21.222Z,20.80
2023-03-22T10:55:48.149Z,20.80
2023-03-22T10:58:22.039Z,20.80
2023-03-22T11:00:49.865Z,20.90
2023-03-22T11:03:29.564Z,20.90
2023-03-22T11:06:21.119Z,20.90
2023-03-22T11:08:52.843Z,20.80
2023-03-22T11:11:23.532Z,20.80
2023-03-22T11:14:01.994Z,20.80
2023-03-22T11:16:29.676Z,20.80
2023-03-22T11:18:57.469Z,20.80
2023-03-22T11:21:28.100Z,20.80
2023-03-22T11:24:05.467Z,20.80
2023-03-22T11:26:37.377Z,20.80
2023-03-22T11:29:13.324Z,20.80
2023-03-22T11:31:59.481Z,20.80
2023-03-22T11:34:28.322Z,21.00
2023-03-22T11:36:57.052Z,21.00
2023-03-22T11:39:26.013Z,21.10
2023-03-22T11:41:52.873Z,21.10
2023-03-22T11:44:21.587Z,21.10
2023-03-22T11:47:01.833Z,21.10
2023-03-22T11:49:40.418Z,21.10
2023-03-22T11:52:08.840Z,21.00
2023-03-22T11:54:35.752Z,20.90
2023-03-22T11:57:05.924Z,21.00
2023-03-22T11:59:40.271Z,21.10
2023-03-22T12:02:18.657Z,21.10
2023-03-22T12:04:48.009Z,21.20
2023-03-22T12:07:21.999Z,21.20
2023-03-22T12:10:17.459Z,21.30
2023-03-22T12:12:51.504Z,21.30
2023-03-22T12:15:21.019Z,21.30
2023-03-22T12:18:04.973Z,21.30
2023-03-22T12:20:56.939Z,21.30
2023-03-22T12:23:28.148Z,21.40
2023-03-22T12:26:02.963Z,21.30
2023-03-22T12:28:38.519Z,21.30
2023-03-22T12:31:07.864Z,21.20
2023-03-22T12:33:49.805Z,21.20
2023-03-22T12:36:19.243Z,21.20
2023-03-22T12:38:47.180Z,21.10
2023-03-22T12:41:16.841Z,21.10
2023-03-22T12:43:56.260Z,21.20
2023-03-22T12:46:25.895Z,21.20
2023-03-22T12:49:03.216Z,21.20
2023-03-22T12:51:30.014Z,21.30
2023-03-22T12:53:57.689Z,21.40
2023-03-22T12:56:37.593Z,21.40
2023-03-22T12:59:05.598Z,21.40
2023-03-22T13:01:39.847Z,21.40
2023-03-22T13:04:25.732Z,21.30
2023-03-22T13:06:53.449Z,21.30
2023-03-22T13:09:29.612Z,21.30
2023-03-22T13:12:18.826Z,21.30
2023-03-22T13:14:58.031Z,21.30
2023-03-22T13:17:25.332Z,21.30
2023-03-22T13:20:07.767Z,21.40
2023-03-22T13:22:37.517Z,21.50
2023-03-22T13:25:10.891Z,21.40
2023-03-22T13:27:45.347Z,21.30
2023-03-22T13:30:21.623Z,21.30
2023-03-22T13:32:54.611Z,21.30
2023-03-22T13:35:25.390Z,21.30
2023-03-22T13:37:52.172Z,21.30
2023-03-22T13:40:35.757Z,21.30
2023-03-22T13:43:22.280Z,21.30
2023-03-22T13:46:17.464Z,21.30
2023-03-22T13:48:48.222Z,21.30
2023-03-22T13:51:35.881Z,21.30
2023-03-22T13:54:09.782Z,21.30
2023-03-22T13:56:43.086Z,21.30
2023-03-22T13:59:20.847Z,21.30
2023-03-22T14:01:57.362Z,21.30
2023-03-22T14:04:32.129Z,21.30
2023-03-22T14:07:33.735Z,21.30
2023-03-22T14:10:02.248Z,21.30
2023-03-22T14:12:37.925Z,21.30
2023-03-22T14:15:05.132Z,21.30
2023-03-22T14:17:35.130Z,21.30
2023-03-22T14:20:04.120Z,21.30
